sensor_id;sensor_type;location;lat;lon;timestamp;pressure;altitude;pressure_sealevel;temperature;humidity
6096;BME280;25081;42.698;23.298;2022-11-18T00:02:07;94257.06;;;7.83;97.18
6096;BME280;25081;42.698;23.298;2022-11-18T00:04:17;94254.61;;;7.81;97.02
6096;BME280;25081;42.698;23.298;2022-11-18T00:06:28;94246.48;;;7.73;97.28
6096;BME280;25081;42.698;23.298;2022-11-18T00:08:39;94249.58;;;7.61;97.50
6096;BME280;25081;42.698;23.298;2022-11-18T00:10:49;94250.79;;;7.56;98.05
6096;BME280;25081;42.698;23.298;2022-11-18T00:13:00;94258.02;;;7.49;98.06
6096;BME280;25081;42.698;23.298;2022-11-18T00:15:28;94256.09;;;7.56;98.44
6096;BME280;25081;42.698;23.298;2022-11-18T00:17:39;94259.34;;;7.49;98.03
6096;BME280;25081;42.698;23.298;2022-11-18T00:19:49;94260.66;;;7.49;98.85
6096;BME280;25081;42.698;23.298;2022-11-18T00:22:00;94261.53;;;7.52;98.82
6096;BME280;25081;42.698;23.298;2022-11-18T00:24:11;94262.95;;;7.55;99.15
6096;BME280;25081;42.698;23.298;2022-11-18T00:26:21;94252.46;;;7.60;98.94
6096;BME280;25081;42.698;23.298;2022-11-18T00:28:32;94248.48;;;7.60;98.58
6096;BME280;25081;42.698;23.298;2022-11-18T00:30:43;94254.59;;;7.60;98.54
6096;BME280;25081;42.698;23.298;2022-11-18T00:32:53;94262.44;;;7.55;98.10
6096;BME280;25081;42.698;23.298;2022-11-18T00:35:05;94256.45;;;7.51;97.64
6096;BME280;25081;42.698;23.298;2022-11-18T00:37:16;94251.55;;;7.45;97.48
6096;BME280;25081;42.698;23.298;2022-11-18T00:39:26;94256.19;;;7.40;97.45
6096;BME280;25081;42.698;23.298;2022-11-18T00:41:37;94256.56;;;7.44;97.92
6096;BME280;25081;42.698;23.298;2022-11-18T00:44:06;94258.76;;;7.47;98.56
6096;BME280;25081;42.698;23.298;2022-11-18T00:46:16;94254.72;;;7.44;98.39
6096;BME280;25081;42.698;23.298;2022-11-18T00:48:27;94257.16;;;7.37;98.25
6096;BME280;25081;42.698;23.298;2022-11-18T00:50:38;94254.73;;;7.35;98.51
6096;BME280;25081;42.698;23.298;2022-11-18T00:52:48;94259.75;;;7.34;97.91
6096;BME280;25081;42.698;23.298;2022-11-18T00:54:59;94256.88;;;7.27;97.47
6096;BME280;25081;42.698;23.298;2022-11-18T00:57:09;94259.24;;;7.16;97.61
6096;BME280;25081;42.698;23.298;2022-11-18T00:59:20;94257.53;;;7.22;98.02
6096;BME280;25081;42.698;23.298;2022-11-18T01:01:30;94245.47;;;7.17;97.95
6096;BME280;25081;42.698;23.298;2022-11-18T01:03:41;94253.78;;;7.11;97.79
6096;BME280;25081;42.698;23.298;2022-11-18T01:05:52;94253.84;;;7.14;97.90
6096;BME280;25081;42.698;23.298;2022-11-18T01:08:03;94249.29;;;7.12;97.55
6096;BME280;25081;42.698;23.298;2022-11-18T01:10:13;94253.66;;;7.06;97.57
6096;BME280;25081;42.698;23.298;2022-11-18T01:12:24;94253.66;;;7.06;97.47
6096;BME280;25081;42.698;23.298;2022-11-18T01:14:52;94253.48;;;7.01;97.49
6096;BME280;25081;42.698;23.298;2022-11-18T01:17:02;94252.69;;;7.01;97.81
6096;BME280;25081;42.698;23.298;2022-11-18T01:19:13;94252.97;;;7.02;98.03
6096;BME280;25081;42.698;23.298;2022-11-18T01:21:26;94254.23;;;6.99;97.85
6096;BME280;25081;42.698;23.298;2022-11-18T01:23:37;94260.80;;;6.97;97.89
6096;BME280;25081;42.698;23.298;2022-11-18T01:25:48;94256.81;;;6.97;97.90
6096;BME280;25081;42.698;23.298;2022-11-18T01:27:58;94254.98;;;7.06;97.94
6096;BME280;25081;42.698;23.298;2022-11-18T01:30:11;94255.84;;;7.00;97.62
6096;BME280;25081;42.698;23.298;2022-11-18T01:32:21;94257.34;;;6.96;97.35
6096;BME280;25081;42.698;23.298;2022-11-18T01:34:32;94257.34;;;6.96;97.37
6096;BME280;25081;42.698;23.298;2022-11-18T01:36:42;94257.92;;;6.98;97.53
6096;BME280;25081;42.698;23.298;2022-11-18T01:38:53;94259.31;;;7.01;97.50
6096;BME280;25081;42.698;23.298;2022-11-18T01:41:04;94261.37;;;6.99;97.36
6096;BME280;25081;42.698;23.298;2022-11-18T01:43:15;94267.13;;;6.96;97.56
6096;BME280;25081;42.698;23.298;2022-11-18T01:45:31;94259.83;;;7.00;98.02
6096;BME280;25081;42.698;23.298;2022-11-18T01:47:42;94262.02;;;7.03;97.92
6096;BME280;25081;42.698;23.298;2022-11-18T01:49:52;94253.66;;;7.06;97.98
6096;BME280;25081;42.698;23.298;2022-11-18T01:52:03;94256.95;;;7.11;98.29
6096;BME280;25081;42.698;23.298;2022-11-18T01:54:15;94252.52;;;7.14;98.25
6096;BME280;25081;42.698;23.298;2022-11-18T01:56:25;94255.84;;;7.18;98.06
6096;BME280;25081;42.698;23.298;2022-11-18T01:58:35;94259.83;;;7.18;97.71
6096;BME280;25081;42.698;23.298;2022-11-18T02:00:45;94251.00;;;7.15;97.53
6096;BME280;25081;42.698;23.298;2022-11-18T02:02:56;94248.94;;;7.08;97.51
6096;BME280;25081;42.698;23.298;2022-11-18T02:05:08;94257.05;;;6.95;97.55
6096;BME280;25081;42.698;23.298;2022-11-18T02:07:19;94254.52;;;6.91;97.78
6096;BME280;25081;42.698;23.298;2022-11-18T02:09:30;94254.01;;;6.92;98.10
6096;BME280;25081;42.698;23.298;2022-11-18T02:11:41;94256.36;;;6.91;98.00
6096;BME280;25081;42.698;23.298;2022-11-18T02:14:01;94257.11;;;6.88;97.88
6096;BME280;25081;42.698;23.298;2022-11-18T02:16:13;94251.94;;;6.84;97.96
6096;BME280;25081;42.698;23.298;2022-11-18T02:18:27;94249.52;;;6.83;98.03
6096;BME280;25081;42.698;23.298;2022-11-18T02:20:37;94252.67;;;6.82;98.02
6096;BME280;25081;42.698;23.298;2022-11-18T02:23:06;94259.67;;;6.68;98.42
6096;BME280;25081;42.698;23.298;2022-11-18T02:25:16;94256.20;;;6.58;99.33
6096;BME280;25081;42.698;23.298;2022-11-18T02:30:25;94250.38;;;6.58;99.48
6096;BME280;25081;42.698;23.298;2022-11-18T02:32:37;94252.72;;;6.48;99.90
6096;BME280;25081;42.698;23.298;2022-11-18T02:34:47;94253.26;;;6.57;100.00
6096;BME280;25081;42.698;23.298;2022-11-18T02:36:59;94252.82;;;6.69;100.00
6096;BME280;25081;42.698;23.298;2022-11-18T02:39:11;94249.59;;;6.67;99.46
6096;BME280;25081;42.698;23.298;2022-11-18T02:41:22;94243.84;;;6.70;99.15
6096;BME280;25081;42.698;23.298;2022-11-18T02:43:33;94251.93;;;6.57;99.13
6096;BME280;25081;42.698;23.298;2022-11-18T02:45:45;94254.94;;;6.60;99.64
6096;BME280;25081;42.698;23.298;2022-11-18T02:47:53;94250.30;;;6.65;99.54
6096;BME280;25081;42.698;23.298;2022-11-18T02:50:05;94248.27;;;6.67;99.23
6096;BME280;25081;42.698;23.298;2022-11-18T02:52:15;94244.59;;;6.68;98.93
6096;BME280;25081;42.698;23.298;2022-11-18T02:54:26;94245.10;;;6.68;98.51
6096;BME280;25081;42.698;23.298;2022-11-18T02:56:36;94247.00;;;6.60;98.27
6096;BME280;25081;42.698;23.298;2022-11-18T02:58:47;94248.30;;;6.51;98.72
6096;BME280;25081;42.698;23.298;2022-11-18T03:00:58;94252.13;;;6.55;98.91
6096;BME280;25081;42.698;23.298;2022-11-18T03:05:48;94252.59;;;6.62;98.47
6096;BME280;25081;42.698;23.298;2022-11-18T03:07:59;94252.34;;;6.54;98.30
6096;BME280;25081;42.698;23.298;2022-11-18T03:10:08;94264.55;;;6.55;98.39
6096;BME280;25081;42.698;23.298;2022-11-18T03:12:23;94258.60;;;6.50;97.97
6096;BME280;25081;42.698;23.298;2022-11-18T03:14:35;94259.56;;;6.47;97.91
6096;BME280;25081;42.698;23.298;2022-11-18T03:16:47;94256.01;;;6.44;98.22
6096;BME280;25081;42.698;23.298;2022-11-18T03:18:56;94260.56;;;6.46;98.17
6096;BME280;25081;42.698;23.298;2022-11-18T03:21:07;94256.09;;;6.37;98.84
6096;BME280;25081;42.698;23.298;2022-11-18T03:23:20;94251.74;;;6.43;99.20
6096;BME280;25081;42.698;23.298;2022-11-18T03:25:33;94244.78;;;6.48;99.32
6096;BME280;25081;42.698;23.298;2022-11-18T03:27:44;94249.70;;;6.54;99.49
6096;BME280;25081;42.698;23.298;2022-11-18T03:29:53;94252.57;;;6.52;99.77
6096;BME280;25081;42.698;23.298;2022-11-18T03:32:05;94246.91;;;6.49;100.00
6096;BME280;25081;42.698;23.298;2022-11-18T03:34:15;94250.66;;;6.50;100.00
6096;BME280;25081;42.698;23.298;2022-11-18T03:36:28;94254.26;;;6.56;100.00
6096;BME280;25081;42.698;23.298;2022-11-18T03:38:37;94253.10;;;6.61;100.00
6096;BME280;25081;42.698;23.298;2022-11-18T03:40:48;94253.17;;;6.64;100.00
6096;BME280;25081;42.698;23.298;2022-11-18T03:42:59;94243.78;;;6.68;100.00
6096;BME280;25081;42.698;23.298;2022-11-18T03:45:11;94251.72;;;6.68;100.00
6096;BME280;25081;42.698;23.298;2022-11-18T03:47:21;94250.02;;;6.73;100.00
6096;BME280;25081;42.698;23.298;2022-11-18T03:49:32;94238.47;;;6.58;100.00
6096;BME280;25081;42.698;23.298;2022-11-18T03:51:43;94234.05;;;6.62;100.00
6096;BME280;25081;42.698;23.298;2022-11-18T03:53:54;94230.87;;;6.53;100.00
6096;BME280;25081;42.698;23.298;2022-11-18T03:56:05;94228.45;;;6.51;100.00
6096;BME280;25081;42.698;23.298;2022-11-18T03:58:17;94226.78;;;6.57;100.00
6096;BME280;25081;42.698;23.298;2022-11-18T04:00:28;94225.22;;;6.49;100.00
6096;BME280;25081;42.698;23.298;2022-11-18T04:02:38;94225.95;;;6.47;100.00
6096;BME280;25081;42.698;23.298;2022-11-18T04:04:49;94229.92;;;6.47;100.00
6096;BME280;25081;42.698;23.298;2022-11-18T04:07:01;94223.22;;;6.54;100.00
6096;BME280;25081;42.698;23.298;2022-11-18T04:09:12;94232.38;;;6.33;100.00
6096;BME280;25081;42.698;23.298;2022-11-18T04:11:23;94228.41;;;6.33;100.00
6096;BME280;25081;42.698;23.298;2022-11-18T04:13:52;94235.05;;;6.42;100.00
6096;BME280;25081;42.698;23.298;2022-11-18T04:16:03;94237.20;;;6.52;100.00
6096;BME280;25081;42.698;23.298;2022-11-18T04:18:13;94238.30;;;6.53;100.00
6096;BME280;25081;42.698;23.298;2022-11-18T04:20:24;94231.55;;;6.48;100.00
6096;BME280;25081;42.698;23.298;2022-11-18T04:22:35;94237.28;;;6.64;100.00
6096;BME280;25081;42.698;23.298;2022-11-18T04:24:45;94237.36;;;6.75;100.00
6096;BME280;25081;42.698;23.298;2022-11-18T04:26:56;94237.88;;;6.84;100.00
6096;BME280;25081;42.698;23.298;2022-11-18T04:29:06;94239.02;;;6.85;100.00
6096;BME280;25081;42.698;23.298;2022-11-18T04:31:17;94242.31;;;6.90;100.00
6096;BME280;25081;42.698;23.298;2022-11-18T04:33:28;94239.59;;;6.97;100.00
6096;BME280;25081;42.698;23.298;2022-11-18T04:35:38;94245.19;;;6.98;100.00
6096;BME280;25081;42.698;23.298;2022-11-18T04:37:49;94247.84;;;6.98;100.00
6096;BME280;25081;42.698;23.298;2022-11-18T04:40:00;94235.98;;;6.91;100.00
6096;BME280;25081;42.698;23.298;2022-11-18T04:42:10;94250.61;;;6.84;100.00
6096;BME280;25081;42.698;23.298;2022-11-18T04:44:21;94261.59;;;6.79;100.00
6096;BME280;25081;42.698;23.298;2022-11-18T04:46:31;94255.84;;;6.82;100.00
6096;BME280;25081;42.698;23.298;2022-11-18T04:48:42;94257.75;;;6.84;100.00
6096;BME280;25081;42.698;23.298;2022-11-18T04:50:54;94259.17;;;6.86;100.00
6096;BME280;25081;42.698;23.298;2022-11-18T04:53:03;94256.52;;;6.86;100.00
6096;BME280;25081;42.698;23.298;2022-11-18T04:55:14;94256.06;;;6.80;100.00
6096;BME280;25081;42.698;23.298;2022-11-18T04:57:24;94261.35;;;6.71;100.00
6096;BME280;25081;42.698;23.298;2022-11-18T04:59:35;94261.28;;;6.69;100.00
6096;BME280;25081;42.698;23.298;2022-11-18T05:01:46;94265.27;;;6.78;100.00
6096;BME280;25081;42.698;23.298;2022-11-18T05:03:57;94258.88;;;6.85;100.00
6096;BME280;25081;42.698;23.298;2022-11-18T05:06:07;94259.82;;;6.91;100.00
6096;BME280;25081;42.698;23.298;2022-11-18T05:08:18;94255.78;;;6.88;100.00
6096;BME280;25081;42.698;23.298;2022-11-18T05:10:28;94250.91;;;6.95;100.00
6096;BME280;25081;42.698;23.298;2022-11-18T05:12:39;94253.72;;;7.00;100.00
6096;BME280;25081;42.698;23.298;2022-11-18T05:14:59;94252.10;;;7.08;100.00
6096;BME280;25081;42.698;23.298;2022-11-18T05:17:09;94259.24;;;7.07;100.00
6096;BME280;25081;42.698;23.298;2022-11-18T05:19:20;94255.10;;;7.21;100.00
6096;BME280;25081;42.698;23.298;2022-11-18T05:21:30;94253.64;;;7.25;100.00
6096;BME280;25081;42.698;23.298;2022-11-18T05:23:41;94262.83;;;7.22;100.00
6096;BME280;25081;42.698;23.298;2022-11-18T05:25:52;94261.73;;;7.02;100.00
6096;BME280;25081;42.698;23.298;2022-11-18T05:28:02;94268.15;;;6.85;100.00
6096;BME280;25081;42.698;23.298;2022-11-18T05:30:14;94265.28;;;6.87;100.00
6096;BME280;25081;42.698;23.298;2022-11-18T05:32:25;94267.41;;;6.87;100.00
6096;BME280;25081;42.698;23.298;2022-11-18T05:34:35;94265.64;;;6.91;100.00
6096;BME280;25081;42.698;23.298;2022-11-18T05:36:46;94267.40;;;6.78;100.00
6096;BME280;25081;42.698;23.298;2022-11-18T05:38:58;94278.00;;;6.78;100.00
6096;BME280;25081;42.698;23.298;2022-11-18T05:41:09;94271.23;;;6.92;100.00
6096;BME280;25081;42.698;23.298;2022-11-18T05:43:19;94266.00;;;7.03;100.00
6096;BME280;25081;42.698;23.298;2022-11-18T05:45:30;94262.98;;;6.91;100.00
6096;BME280;25081;42.698;23.298;2022-11-18T05:47:40;94258.95;;;6.88;100.00
6096;BME280;25081;42.698;23.298;2022-11-18T05:50:10;94256.23;;;6.85;100.00
6096;BME280;25081;42.698;23.298;2022-11-18T05:52:20;94261.72;;;6.84;100.00
6096;BME280;25081;42.698;23.298;2022-11-18T05:54:31;94265.64;;;6.91;100.00
6096;BME280;25081;42.698;23.298;2022-11-18T05:56:43;94261.22;;;7.03;100.00
6096;BME280;25081;42.698;23.298;2022-11-18T05:58:52;94258.66;;;7.05;100.00
6096;BME280;25081;42.698;23.298;2022-11-18T06:01:03;94257.23;;;7.12;100.00
6096;BME280;25081;42.698;23.298;2022-11-18T06:03:15;94257.23;;;7.12;100.00
6096;BME280;25081;42.698;23.298;2022-11-18T06:05:24;94259.66;;;7.13;100.00
6096;BME280;25081;42.698;23.298;2022-11-18T06:07:36;94258.73;;;7.08;100.00
6096;BME280;25081;42.698;23.298;2022-11-18T06:09:46;94265.12;;;7.09;100.00
6096;BME280;25081;42.698;23.298;2022-11-18T06:11:56;94266.28;;;7.23;100.00
6096;BME280;25081;42.698;23.298;2022-11-18T06:14:08;94261.44;;;7.20;100.00
6096;BME280;25081;42.698;23.298;2022-11-18T06:16:18;94268.22;;;7.34;100.00
6096;BME280;25081;42.698;23.298;2022-11-18T06:18:29;94268.50;;;7.44;100.00
6096;BME280;25081;42.698;23.298;2022-11-18T06:20:39;94266.50;;;7.39;100.00
6096;BME280;25081;42.698;23.298;2022-11-18T06:22:51;94264.66;;;7.31;100.00
6096;BME280;25081;42.698;23.298;2022-11-18T06:25:01;94264.23;;;7.34;100.00
6096;BME280;25081;42.698;23.298;2022-11-18T06:27:11;94265.11;;;7.37;100.00
6096;BME280;25081;42.698;23.298;2022-11-18T06:29:22;94263.63;;;7.23;100.00
6096;BME280;25081;42.698;23.298;2022-11-18T06:31:33;94254.52;;;7.18;100.00
6096;BME280;25081;42.698;23.298;2022-11-18T06:33:43;94254.34;;;7.41;100.00
6096;BME280;25081;42.698;23.298;2022-11-18T06:35:54;94247.45;;;7.61;100.00
6096;BME280;25081;42.698;23.298;2022-11-18T06:38:05;94248.75;;;7.70;100.00
6096;BME280;25081;42.698;23.298;2022-11-18T06:40:16;94246.06;;;7.58;100.00
6096;BME280;25081;42.698;23.298;2022-11-18T06:42:28;94253.94;;;7.65;100.00
6096;BME280;25081;42.698;23.298;2022-11-18T06:44:56;94257.64;;;7.85;100.00
6096;BME280;25081;42.698;23.298;2022-11-18T06:47:07;94253.95;;;7.86;100.00
6096;BME280;25081;42.698;23.298;2022-11-18T06:49:17;94256.86;;;7.75;100.00
6096;BME280;25081;42.698;23.298;2022-11-18T06:51:28;94255.77;;;7.73;100.00
6096;BME280;25081;42.698;23.298;2022-11-18T06:53:38;94249.25;;;7.79;100.00
6096;BME280;25081;42.698;23.298;2022-11-18T06:55:49;94249.45;;;7.86;100.00
6096;BME280;25081;42.698;23.298;2022-11-18T06:58:00;94248.84;;;7.93;100.00
6096;BME280;25081;42.698;23.298;2022-11-18T07:00:13;94255.30;;;7.97;100.00
6096;BME280;25081;42.698;23.298;2022-11-18T07:02:23;94248.37;;;7.55;100.00
6096;BME280;25081;42.698;23.298;2022-11-18T07:04:34;94263.39;;;7.42;100.00
6096;BME280;25081;42.698;23.298;2022-11-18T07:06:44;94260.42;;;7.60;100.00
6096;BME280;25081;42.698;23.298;2022-11-18T07:08:55;94259.59;;;7.89;100.00
6096;BME280;25081;42.698;23.298;2022-11-18T07:11:07;94261.64;;;7.96;100.00
6096;BME280;25081;42.698;23.298;2022-11-18T07:13:16;94253.86;;;7.92;100.00
6096;BME280;25081;42.698;23.298;2022-11-18T07:15:27;94253.63;;;7.94;100.00
6096;BME280;25081;42.698;23.298;2022-11-18T07:17:38;94261.27;;;8.02;100.00
6096;BME280;25081;42.698;23.298;2022-11-18T07:19:48;94244.02;;;8.02;100.00
6096;BME280;25081;42.698;23.298;2022-11-18T07:21:59;94238.73;;;8.14;100.00
6096;BME280;25081;42.698;23.298;2022-11-18T07:24:11;94236.47;;;8.20;100.00
6096;BME280;25081;42.698;23.298;2022-11-18T07:26:22;94227.08;;;8.26;100.00
6096;BME280;25081;42.698;23.298;2022-11-18T07:28:33;94229.11;;;8.22;100.00
6096;BME280;25081;42.698;23.298;2022-11-18T07:30:44;94218.88;;;8.16;100.00
6096;BME280;25081;42.698;23.298;2022-11-18T07:32:54;94233.61;;;8.21;100.00
6096;BME280;25081;42.698;23.298;2022-11-18T07:35:06;94231.62;;;8.38;100.00
6096;BME280;25081;42.698;23.298;2022-11-18T07:37:17;94225.62;;;8.66;100.00
6096;BME280;25081;42.698;23.298;2022-11-18T07:39:28;94218.16;;;8.77;100.00
6096;BME280;25081;42.698;23.298;2022-11-18T07:41:39;94223.72;;;8.64;100.00
6096;BME280;25081;42.698;23.298;2022-11-18T07:43:50;94228.45;;;8.73;100.00
6096;BME280;25081;42.698;23.298;2022-11-18T07:46:08;94220.48;;;9.11;100.00
6096;BME280;25081;42.698;23.298;2022-11-18T07:48:18;94217.95;;;9.30;99.96
6096;BME280;25081;42.698;23.298;2022-11-18T07:50:29;94212.95;;;9.20;98.46
6096;BME280;25081;42.698;23.298;2022-11-18T07:52:40;94218.03;;;9.35;98.51
6096;BME280;25081;42.698;23.298;2022-11-18T07:54:50;94213.59;;;9.38;97.72
6096;BME280;25081;42.698;23.298;2022-11-18T07:57:01;94215.49;;;9.14;97.33
6096;BME280;25081;42.698;23.298;2022-11-18T07:59:11;94230.63;;;9.00;97.72
6096;BME280;25081;42.698;23.298;2022-11-18T08:01:23;94226.35;;;8.99;97.91
6096;BME280;25081;42.698;23.298;2022-11-18T08:03:33;94248.88;;;9.08;97.92
6096;BME280;25081;42.698;23.298;2022-11-18T08:05:44;94246.43;;;9.18;97.74
6096;BME280;25081;42.698;23.298;2022-11-18T08:07:55;94255.22;;;9.18;96.87
6096;BME280;25081;42.698;23.298;2022-11-18T08:10:07;94262.95;;;9.20;96.21
6096;BME280;25081;42.698;23.298;2022-11-18T08:12:18;94266.83;;;9.27;96.47
6096;BME280;25081;42.698;23.298;2022-11-18T08:14:28;94275.98;;;8.96;95.38
6096;BME280;25081;42.698;23.298;2022-11-18T08:16:39;94270.60;;;8.25;98.53
6096;BME280;25081;42.698;23.298;2022-11-18T08:18:50;94260.84;;;7.75;100.00
6096;BME280;25081;42.698;23.298;2022-11-18T08:21:02;94252.47;;;7.81;100.00
6096;BME280;25081;42.698;23.298;2022-11-18T08:23:13;94248.25;;;7.61;100.00
6096;BME280;25081;42.698;23.298;2022-11-18T08:25:23;94249.38;;;7.63;100.00
6096;BME280;25081;42.698;23.298;2022-11-18T08:27:34;94244.38;;;7.85;100.00
6096;BME280;25081;42.698;23.298;2022-11-18T08:29:44;94238.89;;;7.68;100.00
6096;BME280;25081;42.698;23.298;2022-11-18T08:31:55;94238.48;;;7.83;100.00
6096;BME280;25081;42.698;23.298;2022-11-18T08:34:06;94211.25;;;8.20;100.00
6096;BME280;25081;42.698;23.298;2022-11-18T08:36:17;94228.52;;;8.41;100.00
6096;BME280;25081;42.698;23.298;2022-11-18T08:38:27;94233.02;;;8.52;100.00
6096;BME280;25081;42.698;23.298;2022-11-18T08:40:37;94204.65;;;8.67;100.00
6096;BME280;25081;42.698;23.298;2022-11-18T08:42:48;94205.47;;;8.79;100.00
6096;BME280;25081;42.698;23.298;2022-11-18T08:45:00;94207.63;;;9.34;100.00
6096;BME280;25081;42.698;23.298;2022-11-18T08:47:10;94218.54;;;8.95;99.57
6096;BME280;25081;42.698;23.298;2022-11-18T08:49:21;94198.81;;;9.05;100.00
6096;BME280;25081;42.698;23.298;2022-11-18T08:51:31;94195.19;;;8.97;99.70
6096;BME280;25081;42.698;23.298;2022-11-18T08:53:42;94205.84;;;8.85;99.54
6096;BME280;25081;42.698;23.298;2022-11-18T08:55:56;94197.17;;;8.52;100.00
6096;BME280;25081;42.698;23.298;2022-11-18T08:58:06;94182.84;;;8.53;100.00
6096;BME280;25081;42.698;23.298;2022-11-18T09:00:19;94167.67;;;9.03;100.00
6096;BME280;25081;42.698;23.298;2022-11-18T09:02:30;94178.30;;;9.03;100.00
6096;BME280;25081;42.698;23.298;2022-11-18T09:04:40;94160.13;;;9.26;99.65
6096;BME280;25081;42.698;23.298;2022-11-18T09:06:51;94151.77;;;8.91;99.95
6096;BME280;25081;42.698;23.298;2022-11-18T09:09:01;94141.29;;;9.56;100.00
6096;BME280;25081;42.698;23.298;2022-11-18T09:11:13;94141.39;;;9.78;97.14
6096;BME280;25081;42.698;23.298;2022-11-18T09:13:23;94146.77;;;9.97;95.18
6096;BME280;25081;42.698;23.298;2022-11-18T09:15:34;94153.48;;;9.54;96.56
6096;BME280;25081;42.698;23.298;2022-11-18T09:17:44;94148.84;;;9.78;95.94
6096;BME280;25081;42.698;23.298;2022-11-18T09:19:55;94150.70;;;10.11;94.36
6096;BME280;25081;42.698;23.298;2022-11-18T09:22:06;94141.59;;;10.07;93.56
6096;BME280;25081;42.698;23.298;2022-11-18T09:24:16;94142.77;;;9.97;94.56
6096;BME280;25081;42.698;23.298;2022-11-18T09:26:27;94144.60;;;10.27;92.62
6096;BME280;25081;42.698;23.298;2022-11-18T09:28:38;94134.98;;;11.06;88.61
6096;BME280;25081;42.698;23.298;2022-11-18T09:30:48;94126.11;;;13.53;81.18
6096;BME280;25081;42.698;23.298;2022-11-18T09:32:59;94124.49;;;15.54;70.12
6096;BME280;25081;42.698;23.298;2022-11-18T09:35:09;94115.14;;;15.93;66.68
6096;BME280;25081;42.698;23.298;2022-11-18T09:37:20;94121.34;;;15.37;67.52
6096;BME280;25081;42.698;23.298;2022-11-18T09:39:32;94071.97;;;15.77;67.73
6096;BME280;25081;42.698;23.298;2022-11-18T09:41:44;94090.21;;;17.01;63.08
6096;BME280;25081;42.698;23.298;2022-11-18T09:44:00;94091.81;;;14.62;69.59
6096;BME280;25081;42.698;23.298;2022-11-18T09:46:15;94091.81;;;14.62;69.59
6096;BME280;25081;42.698;23.298;2022-11-18T09:48:23;94062.31;;;14.67;69.77
6096;BME280;25081;42.698;23.298;2022-11-18T09:50:35;94051.66;;;15.97;65.57
6096;BME280;25081;42.698;23.298;2022-11-18T09:52:47;94062.68;;;16.27;65.09
6096;BME280;25081;42.698;23.298;2022-11-18T09:54:57;94062.68;;;16.27;65.09
6096;BME280;25081;42.698;23.298;2022-11-18T09:57:12;94061.59;;;17.29;62.28
6096;BME280;25081;42.698;23.298;2022-11-18T09:59:23;94047.22;;;18.72;56.64
6096;BME280;25081;42.698;23.298;2022-11-18T10:01:32;94048.89;;;19.50;55.11
6096;BME280;25081;42.698;23.298;2022-11-18T10:03:43;94039.98;;;19.86;53.36
6096;BME280;25081;42.698;23.298;2022-11-18T10:05:54;94039.25;;;20.16;52.69
6096;BME280;25081;42.698;23.298;2022-11-18T10:08:10;94045.16;;;19.96;53.36
6096;BME280;25081;42.698;23.298;2022-11-18T10:10:21;94048.50;;;19.68;52.62
6096;BME280;25081;42.698;23.298;2022-11-18T10:12:34;94036.73;;;19.36;53.71
6096;BME280;25081;42.698;23.298;2022-11-18T10:15:10;94052.15;;;18.83;54.13
6096;BME280;25081;42.698;23.298;2022-11-18T10:17:24;94052.98;;;18.68;55.62
6096;BME280;25081;42.698;23.298;2022-11-18T10:19:34;94040.91;;;18.63;55.54
6096;BME280;25081;42.698;23.298;2022-11-18T10:21:48;94036.73;;;18.24;56.28
6096;BME280;25081;42.698;23.298;2022-11-18T10:23:59;94039.51;;;18.35;56.48
6096;BME280;25081;42.698;23.298;2022-11-18T10:26:09;94030.07;;;19.06;54.58
6096;BME280;25081;42.698;23.298;2022-11-18T10:28:21;94033.82;;;17.88;57.11
6096;BME280;25081;42.698;23.298;2022-11-18T10:30:31;94027.67;;;18.91;55.31
6096;BME280;25081;42.698;23.298;2022-11-18T10:32:58;94025.06;;;19.38;53.79
6096;BME280;25081;42.698;23.298;2022-11-18T10:35:19;94008.00;;;18.30;56.13
6096;BME280;25081;42.698;23.298;2022-11-18T10:37:25;94022.53;;;18.65;54.97
6096;BME280;25081;42.698;23.298;2022-11-18T10:39:43;94013.05;;;19.44;53.80
6096;BME280;25081;42.698;23.298;2022-11-18T10:41:47;94003.95;;;19.77;52.45
6096;BME280;25081;42.698;23.298;2022-11-18T10:43:57;94004.08;;;19.60;51.72
6096;BME280;25081;42.698;23.298;2022-11-18T10:46:18;93997.34;;;19.22;51.77
6096;BME280;25081;42.698;23.298;2022-11-18T10:48:27;94001.33;;;19.24;52.09
6096;BME280;25081;42.698;23.298;2022-11-18T10:50:39;94000.29;;;19.23;52.16
6096;BME280;25081;42.698;23.298;2022-11-18T10:52:52;93986.36;;;18.63;54.05
6096;BME280;25081;42.698;23.298;2022-11-18T10:55:17;93979.91;;;18.01;55.56
6096;BME280;25081;42.698;23.298;2022-11-18T10:57:25;93980.86;;;17.03;58.23
6096;BME280;25081;42.698;23.298;2022-11-18T10:59:37;93975.92;;;17.83;56.96
6096;BME280;25081;42.698;23.298;2022-11-18T11:02:02;93981.41;;;17.59;57.04
6096;BME280;25081;42.698;23.298;2022-11-18T11:04:14;93991.63;;;17.03;58.87
6096;BME280;25081;42.698;23.298;2022-11-18T11:06:34;93980.25;;;16.87;59.16
6096;BME280;25081;42.698;23.298;2022-11-18T11:08:51;93979.55;;;16.55;59.69
6096;BME280;25081;42.698;23.298;2022-11-18T11:11:01;93972.54;;;16.06;61.27
6096;BME280;25081;42.698;23.298;2022-11-18T11:13:13;93978.53;;;16.48;61.19
6096;BME280;25081;42.698;23.298;2022-11-18T11:15:26;93978.53;;;16.48;61.19
6096;BME280;25081;42.698;23.298;2022-11-18T11:17:37;93958.34;;;16.27;60.84
6096;BME280;25081;42.698;23.298;2022-11-18T11:19:50;93953.90;;;16.27;60.84
6096;BME280;25081;42.698;23.298;2022-11-18T11:22:01;93953.90;;;16.15;62.34
6096;BME280;25081;42.698;23.298;2022-11-18T11:24:12;93954.11;;;15.94;62.63
6096;BME280;25081;42.698;23.298;2022-11-18T11:26:26;93954.11;;;15.94;62.63
6096;BME280;25081;42.698;23.298;2022-11-18T11:28:36;93944.77;;;15.87;63.89
6096;BME280;25081;42.698;23.298;2022-11-18T11:30:47;93931.42;;;15.77;63.96
6096;BME280;25081;42.698;23.298;2022-11-18T11:33:20;93931.42;;;15.77;63.96
6096;BME280;25081;42.698;23.298;2022-11-18T11:35:32;93950.98;;;15.48;65.58
6096;BME280;25081;42.698;23.298;2022-11-18T11:37:46;93950.98;;;15.48;65.58
6096;BME280;25081;42.698;23.298;2022-11-18T11:40:15;93933.81;;;15.10;67.44
6096;BME280;25081;42.698;23.298;2022-11-18T11:42:37;93933.81;;;15.10;67.44
6096;BME280;25081;42.698;23.298;2022-11-18T11:44:52;93935.52;;;14.93;68.29
6096;BME280;25081;42.698;23.298;2022-11-18T11:47:07;93935.52;;;14.93;68.29
6096;BME280;25081;42.698;23.298;2022-11-18T11:49:38;93947.63;;;14.91;69.13